Upper Tulpehocken, Pennsylvania
Current Conditions -  °F | °C
As of 12:54 AM on Saturday 29 Nov 2014 (Local Time) from KRDG Reporting Station
Clear Clear  
Wind Chill: 26°   Ceiling: Unl
Heat Index: 26°   Visibility: 10mi
Dew Point: 17°   Wind: 0mph
Humidity: 69%   Direction: NA
Pressure: 30.28"   Gusts: NA
Location:  40.4925°N, 76.1835°W
Report Text: KRDG 290554Z AUTO 00000KT 10SM CLR M03/M08 A3028 RMK AO2 SLP261 T10331083 11017 21039 53007
Loading
Personal Weather Stations






























Interactive Weather Map New forecast layout! Learn more

10-Day Weather Forecast

Advertisements
Track Severe Weather on mobile